Latest Weather Observations for Richmond

IDN60901

Issued at 1:21 pm EDT Monday 30 November 2020 (issued every 10 minutes, with the page automatically refreshed every 10 minutes)

About weather observations | Map of Sydney area stations | Latest observations for Sydney area | Other Formats
Station Details ID: 067105 Name: RICHMOND RAAF Lat: -33.60 Lon: 150.78 Height: 19.0 m
Data from the previous 72 hours. | See also: Recent months at Richmond
Date/Time
EDT
Temp
°C
App
Temp
°C
Dew
Point
°C
Rel
Hum
%
Delta-T
°C
Wind Press
QNH
hPa
Press
MSL
hPa
Rain since
9am
mm
Dir  Spd
km/h
Gust
km/h
Spd
kts
Gust
kts
30/01:00pm 23.3 21.9 12.3 50 6.3 ENE 11 19 6 10 1016.7 1016.6 0.0
30/12:30pm 22.9 21.8 11.9 50 6.2 NE 9 19 5 10 1017.0 1016.9 0.0
30/12:00pm 23.7 23.0 11.4 46 6.9 ESE 6 17 3 9 1017.1 1017.0 0.0
30/11:30am 22.7 19.8 11.1 48 6.4 SE 17 30 9 16 1017.5 1017.4 0.0
30/11:00am 22.6 21.3 11.4 49 6.2 ESE 9 17 5 9 1017.8 1017.7 0.0
30/10:30am 21.8 20.1 11.2 51 5.9 SSE 11 17 6 9 1018.0 1017.9 0.0
30/10:00am 21.4 19.9 12.0 55 5.3 SSE 11 20 6 11 1018.2 1018.2 0.0
30/09:30am 20.5 18.6 11.7 57 4.9 SSE 13 17 7 9 1018.3 1018.3 0.0
30/09:00am 20.3 17.8 12.3 60 4.5 SE 17 20 9 11 1018.2 1018.2 0.0
30/08:30am 19.0 18.6 14.1 73 2.8 WSW 9 13 5 7 1018.2 1018.2 0.0
30/08:00am 18.5 18.3 14.8 79 2.1 WSW 9 13 5 7 1017.9 1017.8 0.0
30/07:30am 18.1 18.2 14.4 79 2.1 WSW 7 11 4 6 1017.5 1017.4 0.0
30/07:00am 17.6 17.6 14.3 81 1.9 WSW 7 9 4 5 1017.2 1017.1 0.0
30/06:30am 17.3 17.6 14.6 84 1.6 WSW 6 7 3 4 1017.0 1016.9 0.0
30/06:00am 16.9 17.2 14.9 88 1.2 WSW 7 9 4 5 1016.9 1016.8 0.0
30/05:30am 16.8 17.2 15.2 90 0.9 WSW 7 9 4 5 1016.5 1016.4 0.0
30/05:00am 16.6 16.2 15.3 92 0.8 SW 11 15 6 8 1016.2 1016.1 0.0
30/04:30am 17.1 16.0 14.2 83 1.7 SSW 13 17 7 9 1015.9 1015.8 0.0
30/04:00am 17.4 17.1 14.3 82 1.8 WSW 9 13 5 7 1015.8 1015.7 0.0
30/03:30am 17.3 17.4 14.4 83 1.7 SSW 7 11 4 6 1015.6 1015.5 0.0
30/03:00am 17.3 15.4 14.2 82 1.8 S 17 33 9 18 1015.6 1015.5 0.0
30/02:30am 18.4 17.0 13.5 73 2.8 SSW 13 26 7 14 1015.5 1015.4 0.0
30/02:00am 19.3 16.3 12.6 65 3.8 SSE 20 28 11 15 1015.4 1015.3 0.0
30/01:30am 19.3 16.9 12.6 65 3.8 SSE 17 22 9 12 1015.6 1015.5 0.0
30/01:00am 19.5 16.7 12.5 64 3.9 SSE 19 28 10 15 1015.7 1015.6 0.0
30/12:30am 20.0 16.8 12.0 60 4.5 SE 20 28 11 15 1015.3 1015.2 0.0
30/12:00am 20.2 17.8 12.7 62 4.2 SE 17 22 9 12 1015.1 1015.0 0.0
 
Date/Time
EDT
Temp
°C
App
Temp
°C
Dew
Point
°C
Rel
Hum
%
Delta-T
°C
Wind Press
QNH
hPa
Press
MSL
hPa
Rain since
9am
mm
Dir  Spd
km/h
Gust
km/h
Spd
kts
Gust
kts
29/11:30pm 20.4 16.6 12.4 60 4.5 SE 24 32 13 17 1014.8 1014.7 0.0
29/11:00pm 20.5 17.9 13.2 63 4.2 ESE 19 30 10 16 1014.5 1014.4 0.0
29/10:30pm 20.2 17.3 12.9 63 4.1 SE 20 28 11 15 1014.0 1013.9 0.0
29/10:00pm 20.5 17.7 13.2 63 4.2 ESE 20 28 11 15 1013.4 1013.3 0.0
29/09:30pm 21.0 16.8 13.4 62 4.4 SE 28 35 15 19 1012.5 1012.4 0.0
29/09:00pm 21.1 18.2 14.0 64 4.1 SE 22 32 12 17 1011.6 1011.5 0.0
29/08:30pm 21.6 18.0 14.3 63 4.3 ESE 26 44 14 24 1010.3 1010.2 0.0
29/08:00pm 22.2 19.4 15.3 65 4.1 SE 24 35 13 19 1009.4 1009.3 0.0
29/07:35pm 23.0 17.9 15.8 64 4.3 SE 37 56 20 30 1007.8 1007.7 0.0
29/07:30pm 23.1 17.3 15.9 64 4.4 SE 41 56 22 30 1007.4 1007.3 0.0
29/07:00pm 24.4 19.1 16.4 61 4.9 SE 39 56 21 30 1006.1 1006.0 0.0
29/06:49pm 26.2 22.3 15.6 52 6.5 SSE 30 52 16 28 1005.1 1005.0 0.0
29/06:43pm 27.2 24.3 13.9 44 7.9 SW 22 52 12 28 1004.8 1004.7 0.0
29/06:30pm 32.6 29.5 13.3 31 11.6 SW 22 35 12 19 1003.8 1003.7 0.0
29/06:14pm 32.9 29.1 12.5 29 12.2 SW 24 41 13 22 1002.9 1002.8 0.0
29/06:00pm 33.9 30.2 12.8 28 12.7 WSW 24 39 13 21 1002.2 1002.1 0.0
29/05:57pm 33.8 29.3 12.7 27 12.7 W 28 46 15 25 1001.9 1001.8 0.0
29/05:44pm 34.2 31.2 12.5 27 13.0 SW 20 44 11 24 1001.0 1000.9 0.0
29/05:30pm 34.8 33.3 13.0 26 13.2 SW 13 22 7 12 1000.3 1000.2 0.0
29/05:00pm 34.9 30.4 12.5 25 13.5 W 28 41 15 22 999.4 999.3 0.0
29/04:34pm 35.1 29.3 13.9 28 13.0 WNW 37 56 20 30 999.4 999.3 0.0
29/04:30pm 35.0 28.8 13.8 28 13.0 WNW 39 56 21 30 999.5 999.4 0.0
29/04:01pm 35.1 29.5 14.4 29 12.8 WNW 37 57 20 31 998.3 998.2 0.0
29/04:00pm 35.0 29.3 14.3 29 12.8 WNW 37 57 20 31 998.2 998.1 0.0
29/03:59pm 35.0 29.0 14.3 29 12.8 WNW 39 61 21 33 998.1 998.0 0.0
29/03:51pm 34.9 27.9 14.2 28 12.7 NW 44 63 24 34 997.6 997.5 0.0
29/03:49pm 35.0 27.5 13.8 28 13.0 NW 46 63 25 34 997.5 997.4 0.0
29/03:30pm 34.7 29.2 14.6 30 12.4 WNW 37 70 20 38 999.5 999.4 0.0
29/03:00pm 38.1 29.7 14.6 24 14.8 W 52 76 28 41 1000.2 1000.1 0.0
29/02:50pm 38.1 29.5 14.0 24 15.0 W 52 74 28 40 999.7 999.6 0.0
29/02:45pm 38.1 30.8 12.7 22 15.5 W 43 74 23 40 999.3 999.2 0.0
29/02:30pm 38.4 32.7 12.9 22 15.6 WNW 35 59 19 32 998.8 998.7 0.0
29/02:00pm 39.1 33.4 14.2 23 15.6 WNW 37 65 20 35 998.8 998.7 0.0
29/01:30pm 38.7 30.3 10.9 19 16.6 WNW 46 76 25 41 998.4 998.3 0.0
29/01:27pm 38.7 31.3 12.5 21 16.0 WNW 43 76 23 41 998.4 998.3 0.0
29/01:26pm 38.7 31.1 11.7 20 16.3 WNW 43 76 23 41 998.2 998.1 0.0
29/01:00pm 38.6 32.2 13.1 22 15.7 WNW 39 57 21 31 998.7 998.6 0.0
29/12:30pm 38.3 30.6 12.1 21 15.8 WNW 44 69 24 37 998.8 998.7 0.0
29/12:00pm 38.0 30.2 11.9 21 15.8 WNW 44 65 24 35 999.2 999.1 0.0
29/11:36am 37.6 31.0 11.5 21 15.6 NW 37 57 20 31 999.5 999.4 0.0
29/11:30am 37.5 30.9 11.5 21 15.5 NW 37 52 20 28 999.7 999.6 0.0
29/11:02am 36.8 30.6 10.2 20 15.6 NNW 33 52 18 28 999.8 999.7 0.0
29/11:00am 36.7 30.9 10.8 21 15.3 NNW 32 44 17 24 999.9 999.8 0.0
29/10:34am 35.9 29.7 9.4 20 15.3 NNW 32 50 17 27 1000.2 1000.1 0.0
29/10:30am 35.6 30.7 11.3 23 14.4 NNW 28 44 15 24 1000.3 1000.2 0.0
29/10:00am 34.8 28.9 10.6 23 14.2 NNW 32 50 17 27 1000.6 1000.5 0.0
29/09:58am 34.7 29.4 9.9 22 14.3 NNW 28 48 15 26 1000.6 1000.5 0.0
29/09:30am 34.0 29.4 11.2 25 13.4 NNW 26 39 14 21 1001.0 1000.9 0.0
29/09:00am 33.4 27.2 11.3 26 13.0 NNW 35 54 19 29 1001.0 1000.9 0.4
29/08:41am 32.3 27.8 12.5 30 11.8 NNW 28 48 15 26 1001.0 1000.9 0.4
29/08:30am 32.1 27.3 12.8 30 11.5 NNW 30 44 16 24 1001.1 1001.0 0.4
29/08:00am 31.4 28.8 13.2 33 10.9 NNW 19 28 10 15 1001.1 1001.0 0.4
29/07:30am 30.8 28.0 13.1 34 10.6 NW 20 39 11 21 1001.1 1001.0 0.4
29/07:00am 30.2 27.4 12.6 34 10.4 NNW 19 30 10 16 1000.9 1000.8 0.4
29/06:30am 31.1 27.3 12.5 32 11.0 NNW 24 41 13 22 1000.6 1000.5 0.4
29/06:08am 31.0 26.3 11.9 31 11.2 NNW 28 46 15 25 1000.7 1000.6 0.4
29/06:00am 31.2 25.8 12.1 31 11.3 NNW 32 46 17 25 1000.4 1000.3 0.4
29/05:42am 31.2 25.2 12.1 31 11.2 NNW 35 54 19 29 1000.2 1000.1 0.4
29/05:30am 31.4 24.9 11.7 29 11.5 NNW 37 52 20 28 1000.0 999.9 0.4
29/05:02am 30.7 26.6 13.9 36 10.1 NNW 28 46 15 25 1000.1 1000.0 0.4
29/05:00am 30.8 27.4 13.6 35 10.4 NNW 24 46 13 25 1000.1 1000.0 0.4
29/04:30am 31.0 27.6 13.7 34 10.4 NNW 24 41 13 22 1001.0 1000.9 0.4
29/04:15am 30.2 27.9 14.7 39 9.4 NNE 20 39 11 21 1002.1 1002.0 0.4
29/04:00am 29.0 28.3 15.5 44 8.3 N 13 24 7 13 1002.0 1001.9 0.4
29/03:30am 29.2 26.9 15.7 44 8.3 NE 22 32 12 17 1002.8 1002.7 0.4
29/03:00am 28.9 28.7 15.8 45 8.1 ESE 11 24 6 13 1003.8 1003.7 0.4
29/02:30am 28.2 26.6 16.1 47 7.5 N 19 26 10 14 1003.5 1003.4 0.4
29/02:25am 28.5 27.0 16.4 48 7.5 N 19 35 10 19 1003.7 1003.6 0.4
29/02:00am 25.5 26.6 18.9 67 4.2 NW 11 17 6 9 1005.7 1005.6 0.4
29/01:30am 25.9 28.2 19.8 69 4.0 SSW 7 17 4 9 1006.8 1006.7 0.4
29/01:00am 25.5 26.1 18.7 66 4.3 SW 13 20 7 11 1006.8 1006.7 0.4
29/12:30am 26.7 28.4 18.6 61 5.2 SE 7 13 4 7 1006.8 1006.7 0.2
29/12:18am 27.4 27.5 18.4 58 5.7 SSW 15 19 8 10 1006.3 1006.2 0.2
29/12:00am 27.5 27.3 17.7 55 6.2 SW 15 19 8 10 1006.0 1005.9 0.0
 
Date/Time
EDT
Temp
°C
App
Temp
°C
Dew
Point
°C
Rel
Hum
%
Delta-T
°C
Wind Press
QNH
hPa
Press
MSL
hPa
Rain since
9am
mm
Dir  Spd
km/h
Gust
km/h
Spd
kts
Gust
kts
28/11:47pm 27.1 29.8 17.8 56 5.9 CALM 0 9 0 5 1005.2 1005.1 0.0
28/11:30pm 27.2 30.0 17.9 56 5.9 CALM 0 0 0 0 1004.8 1004.7 0.0
28/11:28pm 27.2 30.0 17.9 56 5.9 CALM 0 0 0 0 1004.8 1004.7 0.0
28/11:11pm 27.5 30.3 17.9 55 6.1 CALM 0 0 0 0 1004.7 1004.6 0.0
28/11:00pm 27.8 30.8 18.5 57 6.0 CALM 0 0 0 0 1004.6 1004.5 0.0
28/10:49pm 28.4 30.8 17.0 50 7.1 CALM 0 0 0 0 1004.5 1004.4 0.0
28/10:30pm 29.5 31.9 17.0 47 7.9 CALM 0 0 0 0 1004.4 1004.3 0.0
28/10:00pm 30.6 30.3 14.3 37 9.9 NNW 9 11 5 6 1004.5 1004.4 0.0
28/09:30pm 30.5 30.8 14.6 38 9.7 NNE 6 9 3 5 1004.1 1004.0 0.0
28/09:00pm 30.8 31.2 14.8 37 9.8 NNW 6 7 3 4 1004.5 1004.4 0.0
28/08:30pm 31.7 32.0 14.4 35 10.6 N 6 6 3 3 1004.2 1004.1 0.0
28/08:00pm 33.2 33.2 14.3 32 11.6 N 7 9 4 5 1004.1 1004.0 0.0
28/07:30pm 33.8 33.7 13.8 30 12.2 NNW 7 9 4 5 1004.1 1004.0 0.0
28/07:00pm 35.7 35.8 14.4 28 13.2 NW 7 9 4 5 1003.8 1003.7 0.0
28/06:30pm 36.7 35.2 14.1 26 14.0 NNW 15 19 8 10 1003.6 1003.5 0.0
28/06:00pm 37.9 33.5 10.3 19 16.3 NNW 24 39 13 21 1003.4 1003.3 0.0
28/05:30pm 37.9 33.1 11.8 21 15.7 NNW 28 35 15 19 1003.6 1003.5 0.0
28/05:00pm 38.9 36.1 13.3 22 15.8 NNW 20 28 11 15 1003.9 1003.8 0.0
28/04:30pm 38.0 34.7 13.9 24 14.9 NNW 24 30 13 16 1004.4 1004.3 0.0
28/04:00pm 38.6 35.0 13.1 22 15.7 NW 24 32 13 17 1004.7 1004.6 0.0
28/03:30pm 38.5 36.0 12.3 21 15.9 NW 17 24 9 13 1005.2 1005.1 0.0
28/03:00pm 38.6 35.6 12.4 21 16.0 WNW 20 33 11 18 1005.6 1005.5 0.0
28/02:30pm 39.1 33.2 10.4 18 17.0 NW 32 43 17 23 1005.8 1005.7 0.0
28/02:00pm 39.2 35.9 14.9 23 15.4 NW 26 33 14 18 1006.1 1006.0 0.0
28/01:30pm 38.8 34.0 11.8 20 16.3 NW 28 44 15 24 1006.5 1006.4 0.0
28/01:18pm 38.6 34.5 13.8 23 15.4 NW 28 46 15 25 1006.6 1006.5 0.0
28/01:00pm 38.6 34.7 14.4 24 15.2 NNW 28 35 15 19 1007.0 1006.9 0.0
28/12:30pm 38.2 34.2 14.1 24 15.0 NW 28 39 15 21 1007.4 1007.3 0.0
28/12:00pm 37.8 33.1 14.4 25 14.6 NNW 32 46 17 25 1007.6 1007.5 0.0
28/11:54am 37.9 34.0 14.5 25 14.6 NNW 28 46 15 25 1007.7 1007.6 0.0
28/11:30am 37.5 34.1 14.7 25 14.3 NNW 26 41 14 22 1007.8 1007.7 0.0
28/11:00am 37.0 34.8 14.9 27 13.9 NW 20 32 11 17 1008.0 1007.9 0.0
28/10:30am 35.7 35.6 16.9 32 12.1 NW 13 20 7 11 1008.5 1008.4 0.0
28/10:00am 34.4 35.5 19.6 41 9.8 NNE 13 19 7 10 1008.7 1008.6 0.0
28/09:30am 31.7 34.0 22.1 56 6.5 NE 13 15 7 8 1009.1 1009.0 0.0
28/09:00am 28.9 31.3 20.9 62 5.3 NE 9 11 5 6 1009.5 1009.4 0.0
28/08:30am 25.9 29.3 21.6 77 2.9 NE 6 11 3 6 1009.9 1009.8 0.0
28/08:00am 23.5 26.5 20.8 85 1.8 NNE 6 7 3 4 1010.0 1009.9 0.0
28/07:30am 22.4 26.4 20.5 89 1.2 CALM 0 0 0 0 1010.1 1010.0 0.0
28/07:00am 20.5 24.4 20.3 99 0.1 CALM 0 0 0 0 1010.0 1009.9 0.0
28/06:42am 19.7 23.2 19.5 99 0.1 CALM 0 0 0 0 1010.0 1009.9 0.0
28/06:30am 19.2 22.5 19.0 99 0.1 CALM 0 0 0 0 1010.0 1009.9 0.0
28/06:00am 18.1 20.9 17.9 99 0.1 CALM 0 0 0 0 1009.9 1009.8 0.0
28/05:31am 18.4 21.3 18.2 99 0.1 CALM 0 0 0 0 1009.7 1009.6 0.0
28/05:30am 18.4 21.3 18.2 99 0.1 CALM 0 0 0 0 1009.8 1009.7 0.0
28/05:07am 18.4 21.3 18.2 99 0.1 CALM 0 0 0 0 1009.7 1009.6 0.0
28/05:00am 18.5 21.4 18.3 99 0.1 CALM 0 0 0 0 1009.8 1009.7 0.0
28/04:30am 19.1 22.3 18.9 99 0.1 CALM 0 0 0 0 1009.7 1009.6 0.0
28/04:00am 19.1 22.3 18.9 99 0.1 CALM 0 0 0 0 1009.7 1009.6 0.0
28/03:47am 19.1 22.3 18.9 99 0.1 CALM 0 0 0 0 1009.8 1009.7 0.0
28/03:32am 19.3 22.6 19.1 99 0.1 CALM 0 0 0 0 1010.0 1009.9 0.0
28/03:30am 19.3 22.6 19.1 99 0.1 CALM 0 0 0 0 1009.9 1009.8 0.0
28/03:18am 19.0 22.2 18.8 99 0.1 CALM 0 0 0 0 1010.1 1010.0 0.0
28/03:00am 19.4 22.7 19.2 99 0.1 CALM 0 0 0 0 1010.3 1010.2 0.0
28/02:30am 19.8 23.3 19.6 99 0.1 CALM 0 0 0 0 1010.7 1010.6 0.0
28/02:00am 19.6 22.8 18.9 96 0.4 CALM 0 0 0 0 1011.0 1010.9 0.0
28/01:30am 19.8 23.1 19.0 95 0.5 CALM 0 0 0 0 1011.3 1011.2 0.0
28/01:00am 20.9 24.7 20.1 95 0.5 CALM 0 0 0 0 1011.6 1011.5 0.0
28/12:30am 20.6 24.2 19.8 95 0.5 CALM 0 0 0 0 1012.1 1012.0 0.0
28/12:00am 21.1 24.4 19.0 88 1.3 CALM 0 0 0 0 1012.3 1012.2 0.0
 
Date/Time
EDT
Temp
°C
App
Temp
°C
Dew
Point
°C
Rel
Hum
%
Delta-T
°C
Wind Press
QNH
hPa
Press
MSL
hPa
Rain since
9am
mm
Dir  Spd
km/h
Gust
km/h
Spd
kts
Gust
kts
27/11:30pm 21.4 24.8 19.3 88 1.3 CALM 0 0 0 0 1012.6 1012.5 0.0
27/11:00pm 21.6 24.9 19.2 86 1.5 CALM 0 0 0 0 1012.9 1012.8 0.0
27/10:30pm 22.8 24.9 19.0 79 2.4 SE 6 7 3 4 1013.0 1012.9 0.0
27/10:00pm 23.5 25.8 19.4 78 2.6 SSE 6 7 3 4 1013.2 1013.1 0.0
27/09:30pm 24.0 26.2 19.5 76 2.9 SSE 7 7 4 4 1013.0 1012.9 0.0
27/09:00pm 24.4 26.7 19.5 74 3.1 SSE 6 7 3 4 1012.9 1012.8 0.0
27/08:30pm 24.8 26.9 19.4 72 3.5 E 7 9 4 5 1012.8 1012.7 0.0
27/08:00pm 25.1 27.1 19.2 70 3.8 E 7 11 4 6 1012.6 1012.5 0.0
27/07:30pm 26.3 27.3 19.4 66 4.5 ENE 13 17 7 9 1012.3 1012.2 0.0
27/07:00pm 27.7 28.9 19.8 62 5.2 ESE 13 17 7 9 1012.0 1011.9 0.0
27/06:30pm 28.5 28.3 19.4 57 5.9 ESE 19 22 10 12 1011.6 1011.5 0.0
27/06:00pm 29.5 29.4 19.5 55 6.5 E 19 24 10 13 1011.2 1011.1 0.0
27/05:30pm 30.5 30.2 19.2 51 7.4 ENE 19 24 10 13 1010.9 1010.8 0.0
27/05:00pm 32.0 32.2 18.6 45 8.7 NE 15 20 8 11 1011.1 1011.0 0.0
27/04:30pm 32.5 33.1 19.4 46 8.6 ENE 15 24 8 13 1011.4 1011.3 0.0
27/04:00pm 31.8 31.3 18.7 45 8.5 ENE 19 24 10 13 1011.6 1011.5 0.0
27/03:30pm 31.5 31.4 18.8 46 8.3 NE 17 24 9 13 1012.2 1012.1 0.0
27/03:00pm 30.2 29.5 17.3 46 8.2 ENE 17 24 9 13 1012.9 1012.8 0.0
27/02:30pm 29.3 28.9 17.2 48 7.6 ENE 15 24 8 13 1013.5 1013.4 0.0
27/02:00pm 29.5 29.5 18.9 53 6.9 E 17 26 9 14 1014.0 1013.9 0.0
27/01:30pm 27.4 27.3 16.1 50 7.0 E 11 20 6 11 1015.0 1014.9 0.0

Latest Capital City Observations: Canberra | Sydney | Melbourne | Brisbane | Adelaide | Perth | Hobart | Darwin

Other formats

Comma delimited format used in spreadsheet applications
http://www.bom.gov.au/fwo/IDN60901/IDN60901.95753.axf

JavaScript Object Notation format (JSON) in row-major order
http://www.bom.gov.au/fwo/IDN60901/IDN60901.95753.json

Data quality

Most of these data are generated automatically and are frequently updated. Quality checks on data are not normally performed. It is possible for incorrect values to appear. Refer to information at About Latest Weather Observations and please check the disclaimer before using these data.